Archival Weather

Randolph Afb

Universal City, Texas (KRND)

Report from: Monday, September 26, 2022 8:55 PM CDT
Current time: Saturday, February 4, 2023 10:56 PM CST

Current weather
Weather history
Weather forecast

Temperature27.2°C (81.0°F)
Heat index26.7°C (80.0°F)
Dew point6.0°C (42.8°F)
Winds 4 kts (2.1 m/s, 4.6 mph) North-Northeast (30°)
Visibility10 mi. (16.1 km)
Clouds Sky clear
Altimeter30.02 in.Hg (1017 mB)
Relative humidity26 %
Density altitude1,433 ft. (437 m)
Sea-level pressure101.6 kPa (1016 mB, 29.99 in.Hg)
Remarks Fully automated report
Automated weather observing station with precipitation discriminator
Flight conditions Visual Meteorological Conditions
Raw dataKRND 270155Z AUTO 03004KT 10SM CLR 27/06 A3002 RMK AO2 SLP157 T02720060
An unhandled exception has occurred. See browser dev tools for details. Reload 🗙